sensor_id;sensor_type;location;lat;lon;timestamp;pressure;altitude;pressure_sealevel;temperature;humidity
86704;BME280;77454;50.076;14.856;2024-03-23T00:54:05;98331;;;14.7;49.6
86704;BME280;77454;50.076;14.856;2024-03-23T00:56:05;98328;;;14.8;49.8
86704;BME280;77454;50.076;14.856;2024-03-23T00:58:05;98327;;;14.8;50.0
86704;BME280;77454;50.076;14.856;2024-03-23T01:00:06;98326;;;14.8;49.6
86704;BME280;77454;50.076;14.856;2024-03-23T01:02:05;98323;;;14.9;49.0
86704;BME280;77454;50.076;14.856;2024-03-23T01:04:05;98320;;;15.1;48.9
86704;BME280;77454;50.076;14.856;2024-03-23T01:06:05;98317;;;15.1;49.0
86704;BME280;77454;50.076;14.856;2024-03-23T01:08:05;98315;;;15.1;48.6
86704;BME280;77454;50.076;14.856;2024-03-23T01:10:05;98312;;;15.2;48.3
86704;BME280;77454;50.076;14.856;2024-03-23T01:12:05;98312;;;15.2;48.0
86704;BME280;77454;50.076;14.856;2024-03-23T01:14:06;98308;;;15.1;48.1
86704;BME280;77454;50.076;14.856;2024-03-23T01:16:05;98309;;;15.2;48.2
86704;BME280;77454;50.076;14.856;2024-03-23T01:18:05;98303;;;15.2;48.4
86704;BME280;77454;50.076;14.856;2024-03-23T01:20:06;98300;;;15.1;48.6
86704;BME280;77454;50.076;14.856;2024-03-23T01:22:05;98296;;;15.0;48.7
86704;BME280;77454;50.076;14.856;2024-03-23T01:24:05;98292;;;15.0;48.4
86704;BME280;77454;50.076;14.856;2024-03-23T01:26:05;98294;;;15.0;48.6
86704;BME280;77454;50.076;14.856;2024-03-23T01:28:06;98288;;;14.9;48.6
86704;BME280;77454;50.076;14.856;2024-03-23T01:30:05;98284;;;14.9;48.6
86704;BME280;77454;50.076;14.856;2024-03-23T01:32:05;98282;;;14.9;48.7
86704;BME280;77454;50.076;14.856;2024-03-23T01:34:05;98279;;;14.7;49.7
86704;BME280;77454;50.076;14.856;2024-03-23T01:36:05;98275;;;14.5;50.6
86704;BME280;77454;50.076;14.856;2024-03-23T01:38:05;98272;;;14.6;50.1
86704;BME280;77454;50.076;14.856;2024-03-23T01:40:05;98266;;;14.8;49.7
86704;BME280;77454;50.076;14.856;2024-03-23T01:42:05;98257;;;14.9;49.5
86704;BME280;77454;50.076;14.856;2024-03-23T01:44:09;98253;;;15.0;49.4
86704;BME280;77454;50.076;14.856;2024-03-23T01:46:05;98255;;;15.0;49.6
86704;BME280;77454;50.076;14.856;2024-03-23T01:48:05;98252;;;15.0;49.5
86704;BME280;77454;50.076;14.856;2024-03-23T01:50:05;98248;;;14.9;49.6
86704;BME280;77454;50.076;14.856;2024-03-23T01:52:05;98251;;;14.9;49.6
86704;BME280;77454;50.076;14.856;2024-03-23T01:54:06;98253;;;14.8;49.9
86704;BME280;77454;50.076;14.856;2024-03-23T01:56:05;98250;;;14.8;49.8
86704;BME280;77454;50.076;14.856;2024-03-23T01:58:05;98246;;;14.7;50.3
86704;BME280;77454;50.076;14.856;2024-03-23T02:00:06;98242;;;14.5;50.4
86704;BME280;77454;50.076;14.856;2024-03-23T02:02:05;98237;;;14.7;49.9
86704;BME280;77454;50.076;14.856;2024-03-23T02:04:05;98234;;;14.8;49.6
86704;BME280;77454;50.076;14.856;2024-03-23T02:06:07;98234;;;14.9;49.5
86704;BME280;77454;50.076;14.856;2024-03-23T02:08:05;98234;;;14.9;49.7
86704;BME280;77454;50.076;14.856;2024-03-23T02:10:07;98232;;;14.8;50.2
86704;BME280;77454;50.076;14.856;2024-03-23T02:12:05;98234;;;14.6;50.5
86704;BME280;77454;50.076;14.856;2024-03-23T02:14:05;98233;;;14.7;49.9
86704;BME280;77454;50.076;14.856;2024-03-23T02:16:05;98230;;;14.7;49.9
86704;BME280;77454;50.076;14.856;2024-03-23T02:18:07;98228;;;14.8;49.5
86704;BME280;77454;50.076;14.856;2024-03-23T02:20:06;98225;;;14.8;49.5
86704;BME280;77454;50.076;14.856;2024-03-23T02:22:05;98225;;;14.7;49.8
86704;BME280;77454;50.076;14.856;2024-03-23T02:24:05;98222;;;14.7;49.8
86704;BME280;77454;50.076;14.856;2024-03-23T02:26:05;98219;;;14.5;50.4
86704;BME280;77454;50.076;14.856;2024-03-23T02:28:05;98217;;;14.6;50.0
86704;BME280;77454;50.076;14.856;2024-03-23T02:30:05;98215;;;14.6;49.9
86704;BME280;77454;50.076;14.856;2024-03-23T02:32:05;98213;;;14.6;50.0
86704;BME280;77454;50.076;14.856;2024-03-23T02:34:05;98210;;;14.4;50.4
86704;BME280;77454;50.076;14.856;2024-03-23T02:36:05;98206;;;14.5;50.1
86704;BME280;77454;50.076;14.856;2024-03-23T02:38:05;98205;;;14.6;49.8
86704;BME280;77454;50.076;14.856;2024-03-23T02:40:05;98201;;;14.6;50.1
86704;BME280;77454;50.076;14.856;2024-03-23T02:42:05;98190;;;14.6;50.2
86704;BME280;77454;50.076;14.856;2024-03-23T02:44:05;98193;;;14.6;50.1
86704;BME280;77454;50.076;14.856;2024-03-23T02:46:05;98192;;;14.5;50.4
86704;BME280;77454;50.076;14.856;2024-03-23T02:48:05;98188;;;14.4;50.6
86704;BME280;77454;50.076;14.856;2024-03-23T02:50:05;98183;;;14.4;50.6
86704;BME280;77454;50.076;14.856;2024-03-23T02:52:05;98183;;;14.4;50.7
86704;BME280;77454;50.076;14.856;2024-03-23T02:54:05;98181;;;14.2;51.1
86704;BME280;77454;50.076;14.856;2024-03-23T02:56:05;98174;;;14.2;51.3
86704;BME280;77454;50.076;14.856;2024-03-23T02:58:05;98172;;;14.1;51.5
86704;BME280;77454;50.076;14.856;2024-03-23T03:00:07;98170;;;13.9;51.7
86704;BME280;77454;50.076;14.856;2024-03-23T03:02:05;98166;;;14.0;51.6
86704;BME280;77454;50.076;14.856;2024-03-23T03:04:05;98163;;;13.9;52.0
86704;BME280;77454;50.076;14.856;2024-03-23T03:06:05;98160;;;13.5;53.2
86704;BME280;77454;50.076;14.856;2024-03-23T03:08:05;98159;;;13.4;53.2
86704;BME280;77454;50.076;14.856;2024-03-23T03:10:06;98154;;;13.5;52.4
86704;BME280;77454;50.076;14.856;2024-03-23T03:12:06;98152;;;13.5;52.6
86704;BME280;77454;50.076;14.856;2024-03-23T03:14:07;98148;;;13.6;52.5
86704;BME280;77454;50.076;14.856;2024-03-23T03:16:09;98144;;;13.5;52.9
86704;BME280;77454;50.076;14.856;2024-03-23T03:18:05;98143;;;13.4;53.4
86704;BME280;77454;50.076;14.856;2024-03-23T03:20:05;98142;;;13.4;52.9
86704;BME280;77454;50.076;14.856;2024-03-23T03:22:05;98142;;;13.3;53.2
86704;BME280;77454;50.076;14.856;2024-03-23T03:24:06;98141;;;13.1;54.1
86704;BME280;77454;50.076;14.856;2024-03-23T03:26:05;98140;;;12.9;54.6
86704;BME280;77454;50.076;14.856;2024-03-23T03:28:06;98142;;;12.9;54.2
86704;BME280;77454;50.076;14.856;2024-03-23T03:30:06;98138;;;12.9;54.3
86704;BME280;77454;50.076;14.856;2024-03-23T03:32:05;98134;;;12.9;54.7
86704;BME280;77454;50.076;14.856;2024-03-23T03:34:05;98130;;;12.9;54.6
86704;BME280;77454;50.076;14.856;2024-03-23T03:36:05;98126;;;12.9;54.1
86704;BME280;77454;50.076;14.856;2024-03-23T03:38:05;98126;;;12.9;54.1
86704;BME280;77454;50.076;14.856;2024-03-23T03:40:08;98120;;;13.1;53.7
86704;BME280;77454;50.076;14.856;2024-03-23T03:42:06;98117;;;13.1;53.5
86704;BME280;77454;50.076;14.856;2024-03-23T03:44:05;98116;;;13.2;53.3
86704;BME280;77454;50.076;14.856;2024-03-23T03:46:07;98115;;;13.1;53.3
86704;BME280;77454;50.076;14.856;2024-03-23T03:48:05;98113;;;13.2;53.2
86704;BME280;77454;50.076;14.856;2024-03-23T03:50:05;98113;;;13.3;53.0
86704;BME280;77454;50.076;14.856;2024-03-23T03:52:06;98115;;;13.3;52.8
86704;BME280;77454;50.076;14.856;2024-03-23T03:54:05;98115;;;13.3;52.8
86704;BME280;77454;50.076;14.856;2024-03-23T03:56:05;98113;;;13.3;52.7
86704;BME280;77454;50.076;14.856;2024-03-23T03:58:05;98113;;;13.3;52.8
86704;BME280;77454;50.076;14.856;2024-03-23T04:00:06;98105;;;13.3;52.8
86704;BME280;77454;50.076;14.856;2024-03-23T04:02:05;98097;;;13.3;52.8
86704;BME280;77454;50.076;14.856;2024-03-23T04:04:05;98093;;;13.2;52.9
86704;BME280;77454;50.076;14.856;2024-03-23T04:06:05;98092;;;13.2;52.9
86704;BME280;77454;50.076;14.856;2024-03-23T04:08:07;98093;;;13.1;53.5
86704;BME280;77454;50.076;14.856;2024-03-23T04:10:07;98091;;;13.1;53.3
86704;BME280;77454;50.076;14.856;2024-03-23T04:12:05;98086;;;13.1;53.4
86704;BME280;77454;50.076;14.856;2024-03-23T04:14:05;98081;;;13.0;53.8
86704;BME280;77454;50.076;14.856;2024-03-23T04:16:05;98078;;;13.0;53.6
86704;BME280;77454;50.076;14.856;2024-03-23T04:18:05;98073;;;13.0;53.6
86704;BME280;77454;50.076;14.856;2024-03-23T04:20:09;98068;;;13.1;53.6
86704;BME280;77454;50.076;14.856;2024-03-23T04:22:05;98065;;;13.1;53.4
86704;BME280;77454;50.076;14.856;2024-03-23T04:24:06;98063;;;13.0;53.7
86704;BME280;77454;50.076;14.856;2024-03-23T04:26:05;98060;;;13.1;53.5
86704;BME280;77454;50.076;14.856;2024-03-23T04:28:05;98061;;;13.0;53.7
86704;BME280;77454;50.076;14.856;2024-03-23T04:30:10;98064;;;13.0;53.8
86704;BME280;77454;50.076;14.856;2024-03-23T04:32:05;98063;;;13.1;53.8
86704;BME280;77454;50.076;14.856;2024-03-23T04:34:05;98064;;;13.1;53.8
86704;BME280;77454;50.076;14.856;2024-03-23T04:36:05;98065;;;13.2;53.6
86704;BME280;77454;50.076;14.856;2024-03-23T04:38:05;98063;;;13.2;53.9
86704;BME280;77454;50.076;14.856;2024-03-23T04:40:05;98062;;;13.1;54.1
86704;BME280;77454;50.076;14.856;2024-03-23T04:42:05;98059;;;13.2;54.0
86704;BME280;77454;50.076;14.856;2024-03-23T04:44:05;98057;;;13.1;54.4
86704;BME280;77454;50.076;14.856;2024-03-23T04:46:05;98050;;;13.1;54.6
86704;BME280;77454;50.076;14.856;2024-03-23T04:48:05;98042;;;13.1;54.7
86704;BME280;77454;50.076;14.856;2024-03-23T04:50:05;98032;;;13.1;54.8
86704;BME280;77454;50.076;14.856;2024-03-23T04:52:05;98025;;;13.1;54.9
86704;BME280;77454;50.076;14.856;2024-03-23T04:54:05;98022;;;13.1;54.6
86704;BME280;77454;50.076;14.856;2024-03-23T04:56:05;98019;;;13.1;54.6
86704;BME280;77454;50.076;14.856;2024-03-23T04:58:05;98019;;;13.1;54.7
86704;BME280;77454;50.076;14.856;2024-03-23T05:00:16;98015;;;13.1;54.7
86704;BME280;77454;50.076;14.856;2024-03-23T05:02:05;98015;;;13.1;54.8
86704;BME280;77454;50.076;14.856;2024-03-23T05:04:05;98013;;;13.2;54.5
86704;BME280;77454;50.076;14.856;2024-03-23T05:06:05;98012;;;13.2;54.6
86704;BME280;77454;50.076;14.856;2024-03-23T05:08:05;98009;;;13.3;54.4
86704;BME280;77454;50.076;14.856;2024-03-23T05:10:05;98012;;;13.4;54.3
86704;BME280;77454;50.076;14.856;2024-03-23T05:12:05;98009;;;13.4;54.4
86704;BME280;77454;50.076;14.856;2024-03-23T05:14:05;98010;;;13.3;55.2
86704;BME280;77454;50.076;14.856;2024-03-23T05:16:05;98005;;;13.3;55.7
86704;BME280;77454;50.076;14.856;2024-03-23T05:18:05;98006;;;13.0;56.9
86704;BME280;77454;50.076;14.856;2024-03-23T05:20:09;98008;;;12.9;56.7
86704;BME280;77454;50.076;14.856;2024-03-23T05:22:06;98010;;;13.1;56.1
86704;BME280;77454;50.076;14.856;2024-03-23T05:24:05;98005;;;13.3;55.7
86704;BME280;77454;50.076;14.856;2024-03-23T05:26:05;98004;;;13.4;55.7
86704;BME280;77454;50.076;14.856;2024-03-23T05:28:05;97999;;;13.4;55.5
86704;BME280;77454;50.076;14.856;2024-03-23T05:30:06;97995;;;13.4;55.4
86704;BME280;77454;50.076;14.856;2024-03-23T05:32:05;97992;;;13.5;55.2
86704;BME280;77454;50.076;14.856;2024-03-23T05:34:05;97990;;;13.6;54.7
86704;BME280;77454;50.076;14.856;2024-03-23T05:36:05;97987;;;13.5;55.2
86704;BME280;77454;50.076;14.856;2024-03-23T05:38:06;97983;;;13.5;55.4
86704;BME280;77454;50.076;14.856;2024-03-23T05:40:05;97981;;;13.5;55.4
86704;BME280;77454;50.076;14.856;2024-03-23T05:42:05;97981;;;13.5;55.4
86704;BME280;77454;50.076;14.856;2024-03-23T05:44:05;97979;;;13.4;55.9
86704;BME280;77454;50.076;14.856;2024-03-23T05:46:05;97978;;;13.6;55.3
86704;BME280;77454;50.076;14.856;2024-03-23T05:48:05;97977;;;13.6;55.2
86704;BME280;77454;50.076;14.856;2024-03-23T05:50:05;97974;;;13.7;55.2
86704;BME280;77454;50.076;14.856;2024-03-23T05:52:05;97972;;;13.9;54.3
86704;BME280;77454;50.076;14.856;2024-03-23T05:54:05;97972;;;14.0;54.4
86704;BME280;77454;50.076;14.856;2024-03-23T05:56:06;97967;;;14.0;54.2
86704;BME280;77454;50.076;14.856;2024-03-23T05:58:05;97967;;;13.9;54.5
86704;BME280;77454;50.076;14.856;2024-03-23T06:00:10;97965;;;14.0;54.2
86704;BME280;77454;50.076;14.856;2024-03-23T06:02:05;97965;;;13.9;55.1
86704;BME280;77454;50.076;14.856;2024-03-23T06:04:05;97962;;;13.9;54.6
86704;BME280;77454;50.076;14.856;2024-03-23T06:06:10;97958;;;14.0;54.6
86704;BME280;77454;50.076;14.856;2024-03-23T06:08:05;97954;;;14.0;54.5
86704;BME280;77454;50.076;14.856;2024-03-23T06:10:05;97951;;;14.0;54.7
86704;BME280;77454;50.076;14.856;2024-03-23T06:12:05;97949;;;14.1;54.2
86704;BME280;77454;50.076;14.856;2024-03-23T06:14:05;97940;;;14.3;53.7
86704;BME280;77454;50.076;14.856;2024-03-23T06:16:05;97931;;;14.5;53.1
86704;BME280;77454;50.076;14.856;2024-03-23T06:18:05;97929;;;14.5;53.1
86704;BME280;77454;50.076;14.856;2024-03-23T06:20:06;97931;;;14.5;53.0
86704;BME280;77454;50.076;14.856;2024-03-23T06:22:06;97927;;;14.5;53.1
86704;BME280;77454;50.076;14.856;2024-03-23T06:24:05;97920;;;14.6;52.8
86704;BME280;77454;50.076;14.856;2024-03-23T06:26:05;97923;;;14.6;52.6
86704;BME280;77454;50.076;14.856;2024-03-23T06:28:05;97921;;;14.6;52.6
86704;BME280;77454;50.076;14.856;2024-03-23T06:30:05;97914;;;14.8;52.2
86704;BME280;77454;50.076;14.856;2024-03-23T06:32:05;97911;;;14.8;52.2
86704;BME280;77454;50.076;14.856;2024-03-23T06:34:05;97911;;;14.8;52.3
86704;BME280;77454;50.076;14.856;2024-03-23T06:36:05;97911;;;14.8;52.4
86704;BME280;77454;50.076;14.856;2024-03-23T06:38:05;97907;;;15.0;51.9
86704;BME280;77454;50.076;14.856;2024-03-23T06:40:09;97904;;;15.1;51.8
86704;BME280;77454;50.076;14.856;2024-03-23T06:42:05;97903;;;15.0;52.0
86704;BME280;77454;50.076;14.856;2024-03-23T06:44:05;97904;;;15.1;51.7
86704;BME280;77454;50.076;14.856;2024-03-23T06:46:05;97908;;;15.2;51.7
86704;BME280;77454;50.076;14.856;2024-03-23T06:48:07;97907;;;15.3;51.3
86704;BME280;77454;50.076;14.856;2024-03-23T06:50:05;97902;;;15.3;51.2
86704;BME280;77454;50.076;14.856;2024-03-23T06:52:05;97901;;;15.3;51.3
86704;BME280;77454;50.076;14.856;2024-03-23T06:54:05;97902;;;15.4;50.8
86704;BME280;77454;50.076;14.856;2024-03-23T06:56:05;97902;;;15.3;51.3
86704;BME280;77454;50.076;14.856;2024-03-23T06:58:05;97902;;;15.4;51.0
86704;BME280;77454;50.076;14.856;2024-03-23T07:00:09;97902;;;15.3;51.2
86704;BME280;77454;50.076;14.856;2024-03-23T07:02:08;97896;;;15.4;51.0
86704;BME280;77454;50.076;14.856;2024-03-23T07:04:05;97891;;;15.4;51.4
86704;BME280;77454;50.076;14.856;2024-03-23T07:06:05;97873;;;15.4;51.3
86704;BME280;77454;50.076;14.856;2024-03-23T07:08:05;97863;;;15.3;51.4
86704;BME280;77454;50.076;14.856;2024-03-23T07:10:06;97858;;;15.4;51.4
86704;BME280;77454;50.076;14.856;2024-03-23T07:12:05;97858;;;15.6;51.0
86704;BME280;77454;50.076;14.856;2024-03-23T07:14:05;97857;;;15.7;50.8
86704;BME280;77454;50.076;14.856;2024-03-23T07:16:05;97858;;;15.9;50.3
86704;BME280;77454;50.076;14.856;2024-03-23T07:18:05;97853;;;15.9;50.2
86704;BME280;77454;50.076;14.856;2024-03-23T07:20:05;97843;;;16.0;49.8
86704;BME280;77454;50.076;14.856;2024-03-23T07:22:05;97842;;;15.8;50.6
86704;BME280;77454;50.076;14.856;2024-03-23T07:24:05;97833;;;15.8;50.1
86704;BME280;77454;50.076;14.856;2024-03-23T07:26:05;97822;;;15.8;50.2
86704;BME280;77454;50.076;14.856;2024-03-23T07:44:05;97772;;;15.6;51.0
86704;BME280;77454;50.076;14.856;2024-03-23T07:46:05;97769;;;15.5;51.3
86704;BME280;77454;50.076;14.856;2024-03-23T07:48:05;97765;;;15.4;51.5
86704;BME280;77454;50.076;14.856;2024-03-23T07:50:05;97765;;;15.3;51.8
86704;BME280;77454;50.076;14.856;2024-03-23T07:52:05;97764;;;15.5;51.2
86704;BME280;77454;50.076;14.856;2024-03-23T07:54:05;97758;;;15.7;51.0
86704;BME280;77454;50.076;14.856;2024-03-23T07:56:08;97761;;;15.8;50.5
86704;BME280;77454;50.076;14.856;2024-03-23T07:58:05;97747;;;15.8;50.7
86704;BME280;77454;50.076;14.856;2024-03-23T08:00:06;97744;;;15.9;50.1
86704;BME280;77454;50.076;14.856;2024-03-23T08:02:05;97739;;;16.0;50.2
86704;BME280;77454;50.076;14.856;2024-03-23T08:04:06;97731;;;16.0;49.3
86704;BME280;77454;50.076;14.856;2024-03-23T08:20:05;97700;;;16.7;45.7
86704;BME280;77454;50.076;14.856;2024-03-23T08:22:05;97686;;;16.8;45.5
86704;BME280;77454;50.076;14.856;2024-03-23T08:24:05;97695;;;17.1;45.0
86704;BME280;77454;50.076;14.856;2024-03-23T08:26:07;97694;;;16.9;45.5
86704;BME280;77454;50.076;14.856;2024-03-23T08:28:05;97682;;;17.1;45.3
86704;BME280;77454;50.076;14.856;2024-03-23T08:30:05;97688;;;17.3;44.9
86704;BME280;77454;50.076;14.856;2024-03-23T08:32:05;97682;;;17.3;44.5
86704;BME280;77454;50.076;14.856;2024-03-23T08:34:05;97686;;;17.2;45.7
86704;BME280;77454;50.076;14.856;2024-03-23T08:36:06;97694;;;17.1;45.8
86704;BME280;77454;50.076;14.856;2024-03-23T08:38:05;97679;;;17.2;45.8
86704;BME280;77454;50.076;14.856;2024-03-23T08:40:06;97675;;;17.5;45.5
86704;BME280;77454;50.076;14.856;2024-03-23T08:42:05;97671;;;17.9;44.2
86704;BME280;77454;50.076;14.856;2024-03-23T08:44:05;97671;;;17.4;45.6
86704;BME280;77454;50.076;14.856;2024-03-23T08:46:07;97673;;;17.5;45.5
86704;BME280;77454;50.076;14.856;2024-03-23T08:48:05;97669;;;17.6;45.3
86704;BME280;77454;50.076;14.856;2024-03-23T08:50:05;97672;;;18.2;44.4
86704;BME280;77454;50.076;14.856;2024-03-23T08:52:05;97672;;;18.5;43.1
86704;BME280;77454;50.076;14.856;2024-03-23T08:54:05;97669;;;18.0;44.7
86704;BME280;77454;50.076;14.856;2024-03-23T08:56:07;97674;;;17.9;44.0
86704;BME280;77454;50.076;14.856;2024-03-23T08:58:08;97675;;;18.2;42.8
86704;BME280;77454;50.076;14.856;2024-03-23T09:00:08;97672;;;18.4;43.3
86704;BME280;77454;50.076;14.856;2024-03-23T09:02:05;97675;;;18.2;44.3
86704;BME280;77454;50.076;14.856;2024-03-23T09:04:05;97679;;;17.9;44.5
86704;BME280;77454;50.076;14.856;2024-03-23T09:06:10;97680;;;18.1;44.5
86704;BME280;77454;50.076;14.856;2024-03-23T09:08:05;97679;;;18.1;43.1
86704;BME280;77454;50.076;14.856;2024-03-23T09:10:06;97678;;;17.7;44.8
86704;BME280;77454;50.076;14.856;2024-03-23T09:12:05;97682;;;17.8;44.8
86704;BME280;77454;50.076;14.856;2024-03-23T09:14:05;97679;;;18.1;44.1
86704;BME280;77454;50.076;14.856;2024-03-23T09:16:06;97674;;;17.8;45.0
86704;BME280;77454;50.076;14.856;2024-03-23T09:18:05;97663;;;18.0;44.9
86704;BME280;77454;50.076;14.856;2024-03-23T09:20:05;97658;;;18.0;44.3
86704;BME280;77454;50.076;14.856;2024-03-23T09:22:05;97662;;;18.4;43.6
86704;BME280;77454;50.076;14.856;2024-03-23T09:24:06;97657;;;18.6;43.4
86704;BME280;77454;50.076;14.856;2024-03-23T09:26:07;97654;;;18.5;44.5
86704;BME280;77454;50.076;14.856;2024-03-23T09:28:06;97647;;;18.4;43.6
86704;BME280;77454;50.076;14.856;2024-03-23T09:30:05;97648;;;17.7;45.7
86704;BME280;77454;50.076;14.856;2024-03-23T09:32:05;97653;;;17.3;46.9
86704;BME280;77454;50.076;14.856;2024-03-23T09:34:06;97652;;;17.0;47.7
86704;BME280;77454;50.076;14.856;2024-03-23T09:36:06;97651;;;16.9;48.1
86704;BME280;77454;50.076;14.856;2024-03-23T09:38:07;97661;;;16.8;48.8
86704;BME280;77454;50.076;14.856;2024-03-23T09:40:07;97681;;;16.3;50.9
86704;BME280;77454;50.076;14.856;2024-03-23T09:42:06;97692;;;16.0;51.9
86704;BME280;77454;50.076;14.856;2024-03-23T09:44:05;97706;;;15.6;54.3
86704;BME280;77454;50.076;14.856;2024-03-23T09:46:05;97715;;;15.2;58.0
86704;BME280;77454;50.076;14.856;2024-03-23T09:48:06;97731;;;14.6;60.8
86704;BME280;77454;50.076;14.856;2024-03-23T09:50:06;97742;;;14.5;60.6
86704;BME280;77454;50.076;14.856;2024-03-23T09:52:05;97736;;;14.5;59.4
86704;BME280;77454;50.076;14.856;2024-03-23T09:54:06;97737;;;14.4;59.2
86704;BME280;77454;50.076;14.856;2024-03-23T09:56:05;97734;;;14.5;59.5
86704;BME280;77454;50.076;14.856;2024-03-23T09:58:05;97737;;;14.6;59.5
86704;BME280;77454;50.076;14.856;2024-03-23T10:00:06;97744;;;14.5;60.7
86704;BME280;77454;50.076;14.856;2024-03-23T10:02:06;97743;;;14.5;59.9
86704;BME280;77454;50.076;14.856;2024-03-23T10:04:05;97743;;;14.4;60.3
86704;BME280;77454;50.076;14.856;2024-03-23T10:06:05;97738;;;14.4;59.8
86704;BME280;77454;50.076;14.856;2024-03-23T10:10:10;97741;;;14.3;56.8
86704;BME280;77454;50.076;14.856;2024-03-23T10:12:15;97748;;;14.2;55.9
86704;BME280;77454;50.076;14.856;2024-03-23T10:14:05;97750;;;14.2;56.9
86704;BME280;77454;50.076;14.856;2024-03-23T10:16:05;97759;;;14.1;56.7
86704;BME280;77454;50.076;14.856;2024-03-23T10:18:18;97757;;;13.9;57.7
86704;BME280;77454;50.076;14.856;2024-03-23T10:20:09;97770;;;13.8;56.1
86704;BME280;77454;50.076;14.856;2024-03-23T10:22:06;97771;;;13.5;58.2
86704;BME280;77454;50.076;14.856;2024-03-23T10:24:08;97793;;;13.1;61.5
86704;BME280;77454;50.076;14.856;2024-03-23T10:26:20;97797;;;12.6;61.6
86704;BME280;77454;50.076;14.856;2024-03-23T10:28:05;97793;;;12.5;62.1
86704;BME280;77454;50.076;14.856;2024-03-23T10:30:14;97802;;;12.5;62.1
86704;BME280;77454;50.076;14.856;2024-03-23T10:32:09;97808;;;12.6;61.3
86704;BME280;77454;50.076;14.856;2024-03-23T10:34:05;97804;;;12.5;62.2
86704;BME280;77454;50.076;14.856;2024-03-23T10:36:06;97804;;;12.5;62.4
86704;BME280;77454;50.076;14.856;2024-03-23T10:52:05;97812;;;12.2;62.7
86704;BME280;77454;50.076;14.856;2024-03-23T10:54:07;97805;;;12.4;62.2
86704;BME280;77454;50.076;14.856;2024-03-23T10:56:06;97810;;;12.4;62.6
86704;BME280;77454;50.076;14.856;2024-03-23T10:58:05;97811;;;12.3;63.0
86704;BME280;77454;50.076;14.856;2024-03-23T11:00:05;97817;;;12.1;63.3
86704;BME280;77454;50.076;14.856;2024-03-23T11:02:06;97809;;;12.3;63.3
86704;BME280;77454;50.076;14.856;2024-03-23T11:04:05;97808;;;12.2;62.9
86704;BME280;77454;50.076;14.856;2024-03-23T11:06:06;97808;;;12.3;62.0
86704;BME280;77454;50.076;14.856;2024-03-23T11:08:05;97810;;;12.3;62.4
86704;BME280;77454;50.076;14.856;2024-03-23T11:10:32;97820;;;12.6;60.8
86704;BME280;77454;50.076;14.856;2024-03-23T11:14:21;97818;;;12.7;59.1
86704;BME280;77454;50.076;14.856;2024-03-23T11:16:16;97813;;;12.6;58.8
86704;BME280;77454;50.076;14.856;2024-03-23T11:18:07;97816;;;12.8;58.6
86704;BME280;77454;50.076;14.856;2024-03-23T11:20:06;97821;;;12.9;57.4
86704;BME280;77454;50.076;14.856;2024-03-23T11:22:05;97805;;;13.0;58.0
86704;BME280;77454;50.076;14.856;2024-03-23T11:24:13;97802;;;13.4;57.1
86704;BME280;77454;50.076;14.856;2024-03-23T11:26:07;97801;;;13.1;58.0
86704;BME280;77454;50.076;14.856;2024-03-23T11:28:12;97810;;;13.2;57.4
86704;BME280;77454;50.076;14.856;2024-03-23T11:30:13;97809;;;13.1;58.1
86704;BME280;77454;50.076;14.856;2024-03-23T11:32:09;97812;;;13.3;57.8
86704;BME280;77454;50.076;14.856;2024-03-23T11:34:05;97815;;;13.2;57.1
86704;BME280;77454;50.076;14.856;2024-03-23T11:36:05;97811;;;12.9;58.0
86704;BME280;77454;50.076;14.856;2024-03-23T11:38:06;97803;;;13.1;57.7
86704;BME280;77454;50.076;14.856;2024-03-23T11:40:21;97799;;;13.1;57.7
86704;BME280;77454;50.076;14.856;2024-03-23T11:42:05;97804;;;13.2;57.0
86704;BME280;77454;50.076;14.856;2024-03-23T11:44:16;97803;;;13.1;57.9
86704;BME280;77454;50.076;14.856;2024-03-23T11:46:05;97816;;;13.3;56.7
86704;BME280;77454;50.076;14.856;2024-03-23T11:48:06;97804;;;13.6;55.9
86704;BME280;77454;50.076;14.856;2024-03-23T11:50:05;97805;;;13.5;56.3
86704;BME280;77454;50.076;14.856;2024-03-23T11:52:05;97807;;;13.5;56.4
86704;BME280;77454;50.076;14.856;2024-03-23T11:54:07;97815;;;13.6;55.4
86704;BME280;77454;50.076;14.856;2024-03-23T11:56:05;97813;;;13.5;55.9
86704;BME280;77454;50.076;14.856;2024-03-23T11:58:05;97802;;;13.8;54.9
86704;BME280;77454;50.076;14.856;2024-03-23T12:00:22;97799;;;14.1;53.6
86704;BME280;77454;50.076;14.856;2024-03-23T12:02:10;97796;;;14.0;53.4
86704;BME280;77454;50.076;14.856;2024-03-23T12:04:05;97795;;;13.9;53.4
86704;BME280;77454;50.076;14.856;2024-03-23T12:06:07;97800;;;14.2;52.1
86704;BME280;77454;50.076;14.856;2024-03-23T12:08:16;97799;;;14.6;50.4
86704;BME280;77454;50.076;14.856;2024-03-23T12:10:06;97821;;;14.8;50.3
86704;BME280;77454;50.076;14.856;2024-03-23T12:12:06;97841;;;14.4;55.4
86704;BME280;77454;50.076;14.856;2024-03-23T12:14:05;97850;;;13.1;58.9
86704;BME280;77454;50.076;14.856;2024-03-23T12:18:09;97867;;;11.9;60.1
86704;BME280;77454;50.076;14.856;2024-03-23T12:20:05;97873;;;11.4;61.2
86704;BME280;77454;50.076;14.856;2024-03-23T12:22:07;97876;;;11.2;60.6
86704;BME280;77454;50.076;14.856;2024-03-23T12:24:05;97874;;;11.0;60.1
86704;BME280;77454;50.076;14.856;2024-03-23T12:26:05;97877;;;10.9;59.4
86704;BME280;77454;50.076;14.856;2024-03-23T12:28:06;97887;;;10.9;58.7
86704;BME280;77454;50.076;14.856;2024-03-23T12:30:06;97893;;;10.9;58.1
86704;BME280;77454;50.076;14.856;2024-03-23T12:32:05;97898;;;10.9;58.8
86704;BME280;77454;50.076;14.856;2024-03-23T12:34:05;97914;;;10.8;59.1
86704;BME280;77454;50.076;14.856;2024-03-23T12:36:05;97925;;;10.8;59.3
86704;BME280;77454;50.076;14.856;2024-03-23T12:38:05;97926;;;11.1;59.4
86704;BME280;77454;50.076;14.856;2024-03-23T12:40:05;97923;;;11.1;58.0
86704;BME280;77454;50.076;14.856;2024-03-23T12:42:05;97929;;;11.0;57.6
86704;BME280;77454;50.076;14.856;2024-03-23T12:44:05;97937;;;11.0;57.2
86704;BME280;77454;50.076;14.856;2024-03-23T12:46:05;97943;;;11.1;58.3
86704;BME280;77454;50.076;14.856;2024-03-23T12:48:05;97959;;;11.1;58.3
86704;BME280;77454;50.076;14.856;2024-03-23T12:50:06;97967;;;11.0;57.0
86704;BME280;77454;50.076;14.856;2024-03-23T12:52:07;97966;;;10.8;56.8
86704;BME280;77454;50.076;14.856;2024-03-23T12:54:05;97970;;;10.6;56.5